Terminal Aerodrome Forecast
Issued by NWS Los Angeles, CA

Home | Current Version | Previous Version | Text Only | Print | Product List | Glossary On
Versions: 1 2 3 4 5 6 7 8 9 10 11 12 13 14 15 16 17
000
FTUS46 KLOX 241136
TAFSMX
TAF
KSMX 241136Z 2412/2512 32007KT P6SM BKN200
     FM241500 33015KT P6SM BKN200
     FM241900 32025G35KT P6SM BKN150
     FM250300 32015G22KT P6SM BKN100
     FM251000 32017G25KT P6SM BKN025 BKN080=

USA.gov is the U.S. government's official web portal to all federal, state and local government web resources and services.